createdAt,value
2018-01-13T00:00:37.385Z,69.79
2018-01-13T00:01:17.939Z,70.18
2018-01-13T00:01:58.459Z,70.47
2018-01-13T00:02:39.029Z,70.47
2018-01-13T00:03:19.511Z,70.65
2018-01-13T00:04:00.039Z,70.75
2018-01-13T00:04:40.562Z,71.22
2018-01-13T00:05:21.131Z,71.13
2018-01-13T00:06:01.695Z,70.88
2018-01-13T00:06:42.244Z,70.69
2018-01-13T00:07:22.779Z,71.17
2018-01-13T00:08:03.327Z,71.07
2018-01-13T00:08:43.842Z,70.78
2018-01-13T00:09:24.414Z,70.69
2018-01-13T00:10:04.973Z,70.12
2018-01-13T00:10:45.542Z,70.4
2018-01-13T00:11:26.015Z,70.94
2018-01-13T00:12:06.603Z,70.97
2018-01-13T00:12:47.104Z,70.97
2018-01-13T00:13:27.661Z,70.94
2018-01-13T00:14:08.268Z,71.17
2018-01-13T00:14:48.785Z,70.88
2018-01-13T00:15:29.325Z,71.17
2018-01-13T00:16:09.868Z,70.88
2018-01-13T00:16:50.419Z,70.88
2018-01-13T00:17:30.998Z,70.88
2018-01-13T00:18:11.518Z,71.42
2018-01-13T00:18:52.096Z,70.94
2018-01-13T00:19:33.310Z,70.97
2018-01-13T00:20:13.825Z,70.88
2018-01-13T00:20:54.405Z,70.97
2018-01-13T00:21:34.991Z,70.88
2018-01-13T00:22:15.427Z,71.07
2018-01-13T00:22:56.024Z,71.07
2018-01-13T00:23:36.546Z,71.03
2018-01-13T00:24:17.167Z,71.22
2018-01-13T00:24:57.653Z,72.08
2018-01-13T00:25:38.239Z,71.61
2018-01-13T00:26:18.756Z,71.89
2018-01-13T00:26:59.419Z,71.22
2018-01-13T00:27:39.953Z,71.42
2018-01-13T00:28:20.457Z,70.75
2018-01-13T00:29:01.148Z,70.65
2018-01-13T00:29:41.677Z,70.47
2018-01-13T00:30:22.202Z,70.94
2018-01-13T00:31:02.752Z,70.75
2018-01-13T00:31:43.251Z,71.13
2018-01-13T00:32:23.840Z,71.22
2018-01-13T00:33:04.524Z,71.51
2018-01-13T00:33:45.015Z,72.08
2018-01-13T00:34:25.613Z,71.89
2018-01-13T00:35:06.100Z,71.61
2018-01-13T00:35:46.698Z,71.61
2018-01-13T00:36:27.162Z,71.17
2018-01-13T00:37:07.794Z,71.89
2018-01-13T00:37:48.281Z,72.08
2018-01-13T00:38:28.803Z,71.7
2018-01-13T00:39:09.483Z,71.89
2018-01-13T00:39:50.044Z,71.8
2018-01-13T00:40:30.587Z,72.08
2018-01-13T00:41:11.124Z,72.27
2018-01-13T00:41:51.656Z,72.17
2018-01-13T00:42:32.230Z,71.8
2018-01-13T00:43:12.724Z,72.08
2018-01-13T00:43:53.283Z,71.61
2018-01-13T00:44:33.805Z,71.64
2018-01-13T00:45:14.366Z,71.8
2018-01-13T00:45:54.918Z,71.61
2018-01-13T00:46:35.426Z,71.93
2018-01-13T00:47:15.969Z,72.02
2018-01-13T00:47:56.467Z,71.93
2018-01-13T00:48:36.996Z,71.73
2018-01-13T00:49:17.555Z,71.73
2018-01-13T00:49:58.044Z,71.73
2018-01-13T00:50:38.574Z,71.8
2018-01-13T00:51:19.415Z,71.64
2018-01-13T00:53:08.769Z,72.02
2018-01-13T00:53:49.339Z,72.31
2018-01-13T00:54:29.830Z,71.13
2018-01-13T00:55:10.365Z,71.61
2018-01-13T00:55:50.916Z,71.98
2018-01-13T00:56:31.398Z,72.27
2018-01-13T00:57:11.953Z,72.46
2018-01-13T00:57:52.506Z,72.27
2018-01-13T00:58:33.032Z,72.27
2018-01-13T00:59:13.598Z,72.08
2018-01-13T00:59:54.070Z,72.27
2018-01-13T01:00:34.645Z,72.31
2018-01-13T01:01:15.187Z,71.73
2018-01-13T01:01:55.736Z,71.73
2018-01-13T01:02:36.277Z,71.83
2018-01-13T01:03:16.796Z,71.73
2018-01-13T01:03:57.306Z,71.98
2018-01-13T01:04:37.809Z,71.7
2018-01-13T01:05:18.306Z,71.83
2018-01-13T01:05:58.885Z,71.51
2018-01-13T01:06:39.376Z,71.73
2018-01-13T01:07:19.933Z,71.98
2018-01-13T01:08:00.437Z,71.8
2018-01-13T01:08:41.039Z,72.17
2018-01-13T01:09:21.546Z,72.37
2018-01-13T01:10:02.064Z,72.41
2018-01-13T01:10:42.618Z,72.31
2018-01-13T01:11:23.128Z,72.37
2018-01-13T01:12:03.649Z,72.27
2018-01-13T01:12:44.206Z,72.27
2018-01-13T01:13:24.734Z,71.98
2018-01-13T01:14:05.246Z,71.89
2018-01-13T01:14:45.817Z,71.64
2018-01-13T01:15:26.403Z,71.42
2018-01-13T01:16:06.954Z,71.36
2018-01-13T01:16:47.481Z,71.45
2018-01-13T01:17:28.056Z,70.69
2018-01-13T01:18:08.564Z,71.8
2018-01-13T01:18:49.165Z,71.36
2018-01-13T01:19:29.711Z,71.89
2018-01-13T01:20:10.219Z,71.51
2018-01-13T01:20:50.798Z,71.32
2018-01-13T01:21:31.266Z,71.7
2018-01-13T01:22:11.843Z,71.8
2018-01-13T01:22:52.305Z,71.89
2018-01-13T01:23:32.846Z,71.8
2018-01-13T01:24:13.391Z,71.61
2018-01-13T01:24:53.925Z,72.17
2018-01-13T01:25:34.468Z,71.89
2018-01-13T01:26:15.011Z,71.42
2018-01-13T01:26:55.568Z,71.7
2018-01-13T01:27:36.119Z,71.89
2018-01-13T01:28:16.636Z,71.61
2018-01-13T01:28:57.131Z,71.61
2018-01-13T01:29:37.669Z,71.61
2018-01-13T01:30:18.261Z,71.61
2018-01-13T01:30:58.764Z,71.89
2018-01-13T01:31:39.285Z,71.73
2018-01-13T01:32:19.832Z,71.61
2018-01-13T01:33:00.478Z,71.89
2018-01-13T01:33:40.986Z,71.32
2018-01-13T01:34:21.510Z,71.22
2018-01-13T01:35:02.081Z,71.32
2018-01-13T01:35:42.561Z,71.8
2018-01-13T01:36:23.127Z,70.88
2018-01-13T01:37:03.688Z,71.42
2018-01-13T01:37:44.205Z,71.45
2018-01-13T01:38:24.811Z,71.03
2018-01-13T01:39:05.351Z,71.17
2018-01-13T01:39:45.901Z,71.17
2018-01-13T01:40:26.438Z,70.97
2018-01-13T01:41:06.974Z,70.69
2018-01-13T01:41:47.563Z,71.07
2018-01-13T01:42:28.075Z,71.03
2018-01-13T01:43:08.594Z,71.07
2018-01-13T01:43:49.113Z,71.13
2018-01-13T01:44:29.670Z,71.17
2018-01-13T01:45:10.216Z,70.88
2018-01-13T01:45:50.754Z,71.07
2018-01-13T01:46:31.335Z,71.17
2018-01-13T01:47:11.857Z,71.03
2018-01-13T01:47:52.409Z,71.45
2018-01-13T01:48:32.922Z,71.45
2018-01-13T01:49:13.445Z,71.73
2018-01-13T01:49:53.984Z,71.36
2018-01-13T01:50:34.532Z,71.03
2018-01-13T01:51:15.120Z,71.83
2018-01-13T01:51:55.636Z,71.36
2018-01-13T01:52:36.178Z,71.17
2018-01-13T01:53:16.781Z,72.12
2018-01-13T01:53:57.353Z,71.93
2018-01-13T01:54:37.838Z,71.64
2018-01-13T01:55:18.280Z,71.93
2018-01-13T01:55:58.808Z,71.8
2018-01-13T01:56:39.302Z,71.73
2018-01-13T01:57:19.848Z,71.83
2018-01-13T01:58:00.403Z,71.64
2018-01-13T01:58:41.018Z,72.12
2018-01-13T01:59:21.549Z,71.83
2018-01-13T02:00:02.062Z,70.88
2018-01-13T02:00:42.633Z,71.26
2018-01-13T02:01:23.176Z,71.73
2018-01-13T02:02:03.709Z,71.45
2018-01-13T02:02:44.274Z,71.64
2018-01-13T02:03:24.823Z,72.02
2018-01-13T02:04:05.346Z,71.83
2018-01-13T02:04:45.877Z,72.02
2018-01-13T02:05:26.401Z,70.88
2018-01-13T02:06:06.944Z,70.88
2018-01-13T02:06:47.505Z,71.13
2018-01-13T02:07:28.092Z,71.7
2018-01-13T02:08:08.611Z,71.45
2018-01-13T02:08:49.124Z,71.17
2018-01-13T02:09:29.692Z,71.36
2018-01-13T02:10:10.185Z,71.93
2018-01-13T02:10:50.762Z,71.26
2018-01-13T02:11:31.276Z,71.26
2018-01-13T02:12:11.816Z,70.88
2018-01-13T02:12:52.324Z,70.65
2018-01-13T02:13:32.861Z,70.65
2018-01-13T02:14:13.423Z,71.64
2018-01-13T02:14:53.973Z,72.02
2018-01-13T02:15:34.520Z,71.07
2018-01-13T02:16:15.023Z,71.45
2018-01-13T02:16:55.582Z,71.22
2018-01-13T02:17:36.055Z,71.22
2018-01-13T02:18:16.596Z,71.55
2018-01-13T02:18:57.180Z,71.61
2018-01-13T02:19:37.691Z,71.8
2018-01-13T02:20:18.221Z,71.61
2018-01-13T02:20:58.766Z,72.31
2018-01-13T02:21:39.295Z,72.02
2018-01-13T02:22:19.848Z,71.73
2018-01-13T02:23:00.345Z,72.12
2018-01-13T02:23:40.931Z,71.64
2018-01-13T02:24:21.454Z,71.64
2018-01-13T02:25:01.982Z,71.73
2018-01-13T02:25:42.486Z,71.83
2018-01-13T02:26:23.038Z,71.98
2018-01-13T02:27:03.531Z,72.21
2018-01-13T02:27:44.049Z,71.61
2018-01-13T02:28:24.618Z,72.08
2018-01-13T02:29:05.182Z,71.98
2018-01-13T02:29:45.679Z,72.02
2018-01-13T02:30:26.254Z,72.02
2018-01-13T02:31:06.780Z,71.73
2018-01-13T02:31:47.284Z,71.89
2018-01-13T02:32:27.857Z,70.75
2018-01-13T02:33:08.401Z,71.03
2018-01-13T02:33:48.936Z,71.8
2018-01-13T02:34:29.485Z,71.45
2018-01-13T02:35:10.091Z,71.83
2018-01-13T02:35:50.619Z,71.73
2018-01-13T02:36:31.270Z,71.73
2018-01-13T02:37:11.744Z,71.93
2018-01-13T02:37:52.307Z,71.17
2018-01-13T02:38:32.860Z,71.13
2018-01-13T02:39:13.389Z,70.65
2018-01-13T02:39:53.929Z,71.64
2018-01-13T02:40:34.461Z,71.42
2018-01-13T02:41:15.011Z,71.51
2018-01-13T02:41:55.544Z,71.61
2018-01-13T02:42:36.071Z,72.12
2018-01-13T02:43:16.586Z,71.89
2018-01-13T02:43:57.132Z,71.8
2018-01-13T02:44:37.664Z,72.08
2018-01-13T02:45:18.233Z,71.7
2018-01-13T02:45:58.771Z,71.8
2018-01-13T02:46:39.296Z,72.27
2018-01-13T02:47:19.805Z,72.27
2018-01-13T02:48:00.439Z,72.27
2018-01-13T02:48:41.696Z,71.8
2018-01-13T02:49:22.987Z,71.8
2018-01-13T02:50:02.799Z,71.61
2018-01-13T02:50:43.277Z,71.93
2018-01-13T02:51:23.808Z,71.83
2018-01-13T02:52:04.376Z,71.73
2018-01-13T02:52:44.903Z,71.8
2018-01-13T02:53:25.632Z,71.83
2018-01-13T02:54:06.209Z,71.8
2018-01-13T02:54:46.824Z,71.7
2018-01-13T02:55:27.324Z,71.13
2018-01-13T02:56:07.847Z,71.61
2018-01-13T02:56:48.390Z,71.89
2018-01-13T02:57:28.965Z,72.08
2018-01-13T02:58:09.482Z,71.42
2018-01-13T02:58:50.086Z,72.02
2018-01-13T02:59:30.620Z,71.98
2018-01-13T03:00:11.176Z,71.98
2018-01-13T03:00:51.713Z,71.61
2018-01-13T03:01:32.200Z,72.02
2018-01-13T03:02:12.797Z,71.93
2018-01-13T03:02:53.340Z,71.73
2018-01-13T03:03:33.846Z,71.26
2018-01-13T03:04:14.375Z,71.26
2018-01-13T03:04:55.006Z,71.55
2018-01-13T03:05:35.520Z,71.36
2018-01-13T03:06:16.027Z,71.32
2018-01-13T03:06:56.574Z,71.26
2018-01-13T03:07:37.121Z,71.93
2018-01-13T03:08:17.616Z,71.42
2018-01-13T03:08:58.223Z,71.73
2018-01-13T03:09:38.732Z,71.8
2018-01-13T03:10:19.245Z,71.36
2018-01-13T03:10:59.785Z,71.61
2018-01-13T03:11:40.341Z,71.98
2018-01-13T03:12:20.901Z,72.08
2018-01-13T03:13:01.433Z,71.8
2018-01-13T03:13:41.935Z,72.08
2018-01-13T03:14:22.543Z,71.98
2018-01-13T03:15:03.098Z,72.08
2018-01-13T03:15:43.636Z,71.8
2018-01-13T03:16:24.123Z,71.8
2018-01-13T03:17:04.647Z,72.27
2018-01-13T03:17:45.188Z,72.46
2018-01-13T03:18:25.764Z,72.08
2018-01-13T03:19:06.317Z,72.17
2018-01-13T03:19:46.863Z,72.27
2018-01-13T03:20:27.424Z,72.46
2018-01-13T03:21:07.930Z,72.56
2018-01-13T03:21:48.462Z,72.88
2018-01-13T03:22:29.007Z,72.12
2018-01-13T03:23:09.517Z,71.98
2018-01-13T03:23:50.118Z,72.69
2018-01-13T03:24:30.633Z,72.21
2018-01-13T03:25:11.168Z,72.31
2018-01-13T03:25:51.735Z,72.02
2018-01-13T03:26:32.203Z,71.83
2018-01-13T03:27:12.758Z,71.7
2018-01-13T03:27:53.281Z,71.73
2018-01-13T03:28:33.786Z,71.7
2018-01-13T03:29:14.321Z,71.98
2018-01-13T03:29:54.807Z,71.8
2018-01-13T03:30:35.384Z,72.08
2018-01-13T03:31:15.872Z,72.08
2018-01-13T03:31:56.420Z,72.27
2018-01-13T03:32:36.960Z,72.08
2018-01-13T03:33:17.469Z,71.98
2018-01-13T03:33:58.008Z,72.6
2018-01-13T03:34:38.541Z,72.37
2018-01-13T03:35:19.053Z,72.08
2018-01-13T03:35:59.616Z,72.17
2018-01-13T03:36:40.124Z,72.17
2018-01-13T03:37:20.662Z,72.65
2018-01-13T03:38:01.185Z,72.94
2018-01-13T03:38:41.745Z,72.56
2018-01-13T03:39:22.312Z,72.75
2018-01-13T03:40:02.780Z,72.94
2018-01-13T03:40:43.321Z,72.94
2018-01-13T03:41:23.860Z,72.85
2018-01-13T03:42:04.417Z,72.85
2018-01-13T03:42:44.986Z,72.94
2018-01-13T03:43:25.475Z,73.03
2018-01-13T03:44:06.047Z,72.94
2018-01-13T03:44:46.546Z,72.56
2018-01-13T03:45:27.126Z,72.27
2018-01-13T03:46:07.682Z,72.56
2018-01-13T03:46:48.219Z,72.56
2018-01-13T03:47:28.730Z,72.85
2018-01-13T03:48:09.235Z,72.46
2018-01-13T03:48:49.811Z,72.56
2018-01-13T03:49:30.349Z,72.27
2018-01-13T03:50:10.839Z,72.65
2018-01-13T03:50:51.392Z,73.03
2018-01-13T03:51:31.932Z,72.85
2018-01-13T03:52:12.507Z,72.56
2018-01-13T03:52:53.024Z,72.6
2018-01-13T03:53:33.545Z,72.46
2018-01-13T03:54:14.120Z,72.56
2018-01-13T03:54:54.644Z,72.37
2018-01-13T03:55:35.170Z,72.46
2018-01-13T03:56:15.676Z,71.61
2018-01-13T03:56:56.233Z,72.27
2018-01-13T03:57:36.751Z,72.65
2018-01-13T03:58:17.231Z,72.27
2018-01-13T03:58:57.765Z,72.27
2018-01-13T03:59:38.299Z,72.37
2018-01-13T04:00:18.874Z,72.65
2018-01-13T04:00:59.390Z,72.27
2018-01-13T04:01:39.951Z,72.75
2018-01-13T04:02:20.491Z,72.27
2018-01-13T04:03:00.997Z,72.17
2018-01-13T04:03:41.594Z,72.56
2018-01-13T04:04:22.082Z,72.17
2018-01-13T04:05:02.679Z,72.46
2018-01-13T04:05:43.187Z,72.56
2018-01-13T04:06:23.672Z,72.08
2018-01-13T04:07:04.250Z,72.71
2018-01-13T04:07:44.716Z,72.9
2018-01-13T04:08:25.264Z,72.71
2018-01-13T04:09:05.769Z,72.9
2018-01-13T04:09:46.314Z,73.32
2018-01-13T04:10:26.840Z,73.19
2018-01-13T04:11:07.377Z,73.41
2018-01-13T04:11:47.892Z,72.42
2018-01-13T04:12:28.460Z,72.27
2018-01-13T04:13:09.008Z,72.27
2018-01-13T04:13:49.517Z,72.65
2018-01-13T04:14:30.069Z,73
2018-01-13T04:15:10.643Z,73.28
2018-01-13T04:15:51.144Z,73.38
2018-01-13T04:16:31.718Z,73.57
2018-01-13T04:17:12.221Z,73.28
2018-01-13T04:17:52.786Z,73.22
2018-01-13T04:18:33.294Z,73.51
2018-01-13T04:19:13.803Z,73.7
2018-01-13T04:19:54.376Z,73.19
2018-01-13T04:20:34.848Z,73.38
2018-01-13T04:21:15.382Z,73.1
2018-01-13T04:21:55.914Z,73.38
2018-01-13T04:22:36.478Z,73.66
2018-01-13T04:23:17.060Z,73.66
2018-01-13T04:23:57.554Z,73.76
2018-01-13T04:24:38.103Z,73.1
2018-01-13T04:25:18.656Z,73.38
2018-01-13T04:25:59.215Z,73.38
2018-01-13T04:26:39.742Z,73.1
2018-01-13T04:27:20.302Z,73
2018-01-13T04:28:00.837Z,73.76
2018-01-13T04:28:41.402Z,73.76
2018-01-13T04:29:21.952Z,73.19
2018-01-13T04:30:02.597Z,73.1
2018-01-13T04:30:43.103Z,73.66
2018-01-13T04:31:23.609Z,73.28
2018-01-13T04:32:04.180Z,73.28
2018-01-13T04:32:44.690Z,73.85
2018-01-13T04:33:25.295Z,73.66
2018-01-13T04:34:05.868Z,73.38
2018-01-13T04:34:46.397Z,73.47
2018-01-13T04:35:26.966Z,73.38
2018-01-13T04:36:07.499Z,73.38
2018-01-13T04:36:48.038Z,73.57
2018-01-13T04:37:28.622Z,74.04
2018-01-13T04:38:09.125Z,73.76
2018-01-13T04:38:49.694Z,73.66
2018-01-13T04:39:30.223Z,73.47
2018-01-13T04:40:10.726Z,73.66
2018-01-13T04:40:51.295Z,73.57
2018-01-13T04:41:31.827Z,73.28
2018-01-13T04:42:12.343Z,73.95
2018-01-13T04:42:52.887Z,73.1
2018-01-13T04:43:33.461Z,73.66
2018-01-13T04:44:13.995Z,73.41
2018-01-13T04:44:54.548Z,73.38
2018-01-13T04:45:35.098Z,73.47
2018-01-13T04:46:15.625Z,73.66
2018-01-13T04:46:56.123Z,73.66
2018-01-13T04:47:36.679Z,73.76
2018-01-13T04:48:17.238Z,73.47
2018-01-13T04:48:57.779Z,74.33
2018-01-13T04:49:38.315Z,74.8
2018-01-13T04:50:18.853Z,74.62
2018-01-13T04:50:59.381Z,74.71
2018-01-13T04:51:39.961Z,74.52
2018-01-13T04:52:20.512Z,74.14
2018-01-13T04:53:01.021Z,73.95
2018-01-13T04:53:41.593Z,73.95
2018-01-13T04:54:22.165Z,74.33
2018-01-13T04:55:02.706Z,73.76
2018-01-13T04:55:43.210Z,73.76
2018-01-13T04:56:23.700Z,73.47
2018-01-13T04:57:04.223Z,73.76
2018-01-13T04:57:44.743Z,73.76
2018-01-13T04:58:25.308Z,73.47
2018-01-13T04:59:05.833Z,74.04
2018-01-13T04:59:46.375Z,73.85
2018-01-13T05:00:26.882Z,74.14
2018-01-13T05:01:07.415Z,74.24
2018-01-13T05:01:47.926Z,74.52
2018-01-13T05:02:28.459Z,74.52
2018-01-13T05:03:09.012Z,74.8
2018-01-13T05:03:49.771Z,74.62
2018-01-13T05:04:30.277Z,74.48
2018-01-13T05:05:10.841Z,74.9
2018-01-13T05:05:51.429Z,74.87
2018-01-13T05:06:31.886Z,75.43
2018-01-13T05:07:12.424Z,75.53
2018-01-13T05:07:52.987Z,75.81
2018-01-13T05:08:33.480Z,75.62
2018-01-13T05:09:14.053Z,75.62
2018-01-13T05:09:54.541Z,75.62
2018-01-13T05:10:35.108Z,75.95
2018-01-13T05:11:15.606Z,75.28
2018-01-13T05:11:56.178Z,75.28
2018-01-13T05:12:36.711Z,75.38
2018-01-13T05:13:17.198Z,75.28
2018-01-13T05:13:57.774Z,75.57
2018-01-13T05:14:38.359Z,75.38
2018-01-13T05:15:18.855Z,75.09
2018-01-13T05:15:59.396Z,75.19
2018-01-13T05:16:39.963Z,75.19
2018-01-13T05:17:20.487Z,74.99
2018-01-13T05:18:01.024Z,74.62
2018-01-13T05:18:41.566Z,74.62
2018-01-13T05:19:22.105Z,75.09
2018-01-13T05:20:02.596Z,75.38
2018-01-13T05:20:43.151Z,75.43
2018-01-13T05:21:23.719Z,75.43
2018-01-13T05:22:04.232Z,75.34
2018-01-13T05:22:44.756Z,75.72
2018-01-13T05:23:25.267Z,75.57
2018-01-13T05:24:05.788Z,75.67
2018-01-13T05:24:46.331Z,75.76
2018-01-13T05:25:26.857Z,75.85
2018-01-13T05:26:07.435Z,75.47
2018-01-13T05:26:47.995Z,75.28
2018-01-13T05:27:28.529Z,75.38
2018-01-13T05:28:09.078Z,75.47
2018-01-13T05:28:49.645Z,75.05
2018-01-13T05:29:30.182Z,75.47
2018-01-13T05:30:10.710Z,75.67
2018-01-13T05:30:51.255Z,75.67
2018-01-13T05:31:31.793Z,75.38
2018-01-13T05:32:12.274Z,75.38
2018-01-13T05:32:52.818Z,75.47
2018-01-13T05:33:33.356Z,75.28
2018-01-13T05:34:13.901Z,75.67
2018-01-13T05:34:54.434Z,75.67
2018-01-13T05:35:35.032Z,75.38
2018-01-13T05:36:15.539Z,74.99
2018-01-13T05:36:56.104Z,75.38
2018-01-13T05:37:36.661Z,75.19
2018-01-13T05:38:17.163Z,75.28
2018-01-13T05:38:57.762Z,75.57
2018-01-13T05:39:38.258Z,75.28
2018-01-13T05:40:18.800Z,74.9
2018-01-13T05:40:59.383Z,75.57
2018-01-13T05:41:39.898Z,75.19
2018-01-13T05:42:20.419Z,75.38
2018-01-13T05:43:00.952Z,75.76
2018-01-13T05:43:41.465Z,75.57
2018-01-13T05:44:22.008Z,75.76
2018-01-13T05:45:02.568Z,75.76
2018-01-13T05:45:43.076Z,75.67
2018-01-13T05:46:23.559Z,75.67
2018-01-13T05:47:04.091Z,75.38
2018-01-13T05:47:44.638Z,75.47
2018-01-13T05:48:25.183Z,75.47
2018-01-13T05:49:05.694Z,75.57
2018-01-13T05:49:46.286Z,75.57
2018-01-13T05:50:26.833Z,75.57
2018-01-13T05:51:07.322Z,75.76
2018-01-13T05:51:47.919Z,75.76
2018-01-13T05:52:28.403Z,75.76
2018-01-13T05:53:08.928Z,75.57
2018-01-13T05:53:49.527Z,75.57
2018-01-13T05:54:30.059Z,75.67
2018-01-13T05:55:10.593Z,75.57
2018-01-13T05:55:51.114Z,75.85
2018-01-13T05:56:31.684Z,75.76
2018-01-13T05:57:12.232Z,75.47
2018-01-13T05:57:52.815Z,75.38
2018-01-13T05:58:33.321Z,75.38
2018-01-13T05:59:13.817Z,75.28
2018-01-13T05:59:54.374Z,75.09
2018-01-13T06:00:34.918Z,75.19
2018-01-13T06:01:15.462Z,75.47
2018-01-13T06:01:55.993Z,75.57
2018-01-13T06:02:36.570Z,75.38
2018-01-13T06:03:17.127Z,75.57
2018-01-13T06:03:57.760Z,75.47
2018-01-13T06:04:38.277Z,75.47
2018-01-13T06:05:18.798Z,75.76
2018-01-13T06:05:59.308Z,75.67
2018-01-13T06:06:39.855Z,76.04
2018-01-13T06:07:20.371Z,75.47
2018-01-13T06:08:00.925Z,75.67
2018-01-13T06:08:41.425Z,75.76
2018-01-13T06:09:21.914Z,75.57
2018-01-13T06:10:02.480Z,75.76
2018-01-13T06:10:42.969Z,76.14
2018-01-13T06:11:23.561Z,76.04
2018-01-13T06:12:04.161Z,76.61
2018-01-13T06:12:44.678Z,76.33
2018-01-13T06:13:25.258Z,76.23
2018-01-13T06:14:05.729Z,76.33
2018-01-13T06:14:46.303Z,76.23
2018-01-13T06:15:26.823Z,76.61
2018-01-13T06:16:07.357Z,76.33
2018-01-13T06:16:47.886Z,76.61
2018-01-13T06:17:28.442Z,76.81
2018-01-13T06:18:09.024Z,76.23
2018-01-13T06:18:49.558Z,76.71
2018-01-13T06:19:30.072Z,76.42
2018-01-13T06:20:10.640Z,76.52
2018-01-13T06:20:51.144Z,76.23
2018-01-13T06:21:31.655Z,76.61
2018-01-13T06:22:12.210Z,77.19
2018-01-13T06:22:52.730Z,76.9
2018-01-13T06:23:33.247Z,77
2018-01-13T06:24:13.803Z,76.42
2018-01-13T06:24:54.315Z,76.52
2018-01-13T06:25:34.880Z,76.33
2018-01-13T06:26:15.385Z,76.52
2018-01-13T06:26:55.917Z,76.14
2018-01-13T06:27:36.449Z,76.61
2018-01-13T06:28:17.068Z,76.52
2018-01-13T06:28:57.580Z,76.71
2018-01-13T06:29:38.141Z,76.71
2018-01-13T06:30:18.631Z,76.71
2018-01-13T06:30:59.181Z,76.61
2018-01-13T06:31:39.638Z,76.52
2018-01-13T06:32:20.218Z,76.42
2018-01-13T06:33:00.730Z,76.42
2018-01-13T06:33:41.298Z,76.42
2018-01-13T06:34:21.802Z,77.19
2018-01-13T06:35:02.387Z,77.28
2018-01-13T06:35:42.904Z,77
2018-01-13T06:36:23.428Z,77
2018-01-13T06:37:03.944Z,77.19
2018-01-13T06:37:44.484Z,77.28
2018-01-13T06:38:25.001Z,76.61
2018-01-13T06:39:05.574Z,76.52
2018-01-13T06:39:46.057Z,76.61
2018-01-13T06:40:26.633Z,76.52
2018-01-13T06:41:07.161Z,76.52
2018-01-13T06:41:47.685Z,76.23
2018-01-13T06:42:28.260Z,76.52
2018-01-13T06:43:08.780Z,76.9
2018-01-13T06:43:49.375Z,77
2018-01-13T06:44:29.953Z,76.61
2018-01-13T06:45:10.518Z,76.71
2018-01-13T06:45:51.094Z,76.42
2018-01-13T06:46:31.687Z,77.19
2018-01-13T06:47:12.196Z,77.19
2018-01-13T06:47:52.684Z,77
2018-01-13T06:48:33.186Z,76.33
2018-01-13T06:49:13.788Z,77.37
2018-01-13T06:49:54.235Z,76.61
2018-01-13T06:50:34.805Z,76.52
2018-01-13T06:51:15.296Z,77
2018-01-13T06:51:55.915Z,76.9
2018-01-13T06:52:36.403Z,77.19
2018-01-13T06:53:16.943Z,76.61
2018-01-13T06:53:58.414Z,76.81
2018-01-13T06:54:38.943Z,76.61
2018-01-13T06:55:19.512Z,76.71
2018-01-13T06:56:00.383Z,76.52
2018-01-13T06:56:41.032Z,77.19
2018-01-13T06:57:21.636Z,76.81
2018-01-13T06:58:02.136Z,77.37
2018-01-13T06:58:42.683Z,77.56
2018-01-13T06:59:23.275Z,77.19
2018-01-13T07:00:04.707Z,77.37
2018-01-13T07:00:45.229Z,77.56
2018-01-13T07:01:25.797Z,77
2018-01-13T07:02:06.330Z,76.81
2018-01-13T07:02:46.881Z,77.28
2018-01-13T07:03:27.450Z,77.56
2018-01-13T07:04:07.991Z,77.47
2018-01-13T07:04:48.478Z,77.19
2018-01-13T07:05:29.068Z,77.28
2018-01-13T07:06:09.546Z,77.47
2018-01-13T07:06:50.072Z,77.19
2018-01-13T07:07:30.608Z,76.81
2018-01-13T07:08:11.162Z,77
2018-01-13T07:08:51.877Z,76.61
2018-01-13T07:09:32.383Z,76.42
2018-01-13T07:10:13.121Z,76.71
2018-01-13T07:10:53.861Z,77.66
2018-01-13T07:11:34.417Z,77.47
2018-01-13T07:12:15.024Z,77.47
2018-01-13T07:12:55.548Z,77.37
2018-01-13T07:13:36.072Z,77.37
2018-01-13T07:14:16.617Z,77.76
2018-01-13T07:14:57.118Z,76.9
2018-01-13T07:15:37.641Z,77.37
2018-01-13T07:16:18.626Z,77.37
2018-01-13T07:16:59.273Z,76.81
2018-01-13T07:17:39.791Z,76.52
2018-01-13T07:18:20.333Z,76.81
2018-01-13T07:19:00.932Z,76.9
2018-01-13T07:19:41.416Z,76.61
2018-01-13T07:20:21.936Z,76.71
2018-01-13T07:21:02.434Z,76.71
2018-01-13T07:21:42.993Z,76.71
2018-01-13T07:22:23.551Z,77.37
2018-01-13T07:23:04.058Z,76.9
2018-01-13T07:23:44.645Z,76.71
2018-01-13T07:24:25.166Z,76.61
2018-01-13T07:25:05.684Z,76.42
2018-01-13T07:25:46.216Z,77
2018-01-13T07:26:26.772Z,76.61
2018-01-13T07:27:07.268Z,76.71
2018-01-13T07:27:47.826Z,76.61
2018-01-13T07:28:28.357Z,77
2018-01-13T07:29:08.851Z,77.19
2018-01-13T07:29:49.383Z,76.81
2018-01-13T07:30:29.908Z,77.37
2018-01-13T07:31:10.469Z,77.28
2018-01-13T07:31:50.991Z,77.56
2018-01-13T07:32:31.489Z,77.76
2018-01-13T07:33:12.039Z,77.66
2018-01-13T07:33:52.541Z,77.28
2018-01-13T07:34:33.136Z,77.28
2018-01-13T07:35:13.693Z,77.47
2018-01-13T07:35:54.220Z,77
2018-01-13T07:36:34.799Z,77
2018-01-13T07:37:15.361Z,77.28
2018-01-13T07:37:55.872Z,77.47
2018-01-13T07:38:36.441Z,77.66
2018-01-13T07:39:16.985Z,77.28
2018-01-13T07:39:57.620Z,77.66
2018-01-13T07:40:38.089Z,77.76
2018-01-13T07:41:21.070Z,77.76
2018-01-13T07:41:59.203Z,77.37
2018-01-13T07:42:39.759Z,76.9
2018-01-13T07:43:20.310Z,76.33
2018-01-13T07:44:00.866Z,76.42
2018-01-13T07:44:41.475Z,76.9
2018-01-13T07:45:22.001Z,77.37
2018-01-13T07:46:02.554Z,76.9
2018-01-13T07:46:43.104Z,76.9
2018-01-13T07:47:23.623Z,77.09
2018-01-13T07:48:04.213Z,76.61
2018-01-13T07:48:45.091Z,76.52
2018-01-13T07:49:25.661Z,76.52
2018-01-13T07:50:06.196Z,77.19
2018-01-13T07:50:46.747Z,77.37
2018-01-13T07:51:27.261Z,77.47
2018-01-13T07:52:07.794Z,77.09
2018-01-13T07:52:48.444Z,77.19
2018-01-13T07:53:29.042Z,76.61
2018-01-13T07:54:09.751Z,76.42
2018-01-13T07:54:50.181Z,77.19
2018-01-13T07:55:30.737Z,76.9
2018-01-13T07:56:11.318Z,77.19
2018-01-13T07:56:51.897Z,76.52
2018-01-13T07:57:32.408Z,76.71
2018-01-13T07:58:12.966Z,76.9
2018-01-13T07:58:53.536Z,76.52
2018-01-13T07:59:34.049Z,76.52
2018-01-13T08:00:14.567Z,76.9
2018-01-13T08:00:55.137Z,77.28
2018-01-13T08:01:35.729Z,77.28
2018-01-13T08:02:16.269Z,77.37
2018-01-13T08:02:56.857Z,76.81
2018-01-13T08:03:37.441Z,77.37
2018-01-13T08:04:20.872Z,76.9
2018-01-13T08:05:01.413Z,76.52
2018-01-13T08:05:43.071Z,76.42
2018-01-13T08:06:23.212Z,76.71
2018-01-13T08:07:03.750Z,77.19
2018-01-13T08:07:44.249Z,76.61
2018-01-13T08:08:24.767Z,76.61
2018-01-13T08:09:05.347Z,76.71
2018-01-13T08:09:45.904Z,76.61
2018-01-13T08:10:26.445Z,77.28
2018-01-13T08:11:07.006Z,77.66
2018-01-13T08:11:47.549Z,77.28
2018-01-13T08:12:28.101Z,77.19
2018-01-13T08:13:08.652Z,76.33
2018-01-13T08:13:49.182Z,76.61
2018-01-13T08:14:29.754Z,76.71
2018-01-13T08:15:10.257Z,76.52
2018-01-13T08:15:50.794Z,76.52
2018-01-13T08:16:31.313Z,76.42
2018-01-13T08:17:11.875Z,77.19
2018-01-13T08:17:52.449Z,77
2018-01-13T08:18:33.012Z,76.42
2018-01-13T08:19:13.581Z,76.52
2018-01-13T08:19:54.104Z,76.42
2018-01-13T08:20:34.636Z,76.42
2018-01-13T08:21:15.180Z,76.61
2018-01-13T08:21:55.712Z,76.33
2018-01-13T08:22:36.275Z,76.52
2018-01-13T08:23:16.844Z,75.95
2018-01-13T08:23:57.537Z,76.52
2018-01-13T08:24:38.500Z,75.95
2018-01-13T08:25:19.638Z,75.57
2018-01-13T08:26:00.158Z,76.04
2018-01-13T08:26:40.981Z,75.85
2018-01-13T08:27:22.064Z,75.95
2018-01-13T08:28:02.479Z,76.52
2018-01-13T08:28:42.993Z,76.42
2018-01-13T08:29:23.509Z,76.23
2018-01-13T08:30:04.065Z,76.23
2018-01-13T08:30:44.622Z,76.23
2018-01-13T08:31:25.224Z,76.33
2018-01-13T08:32:05.772Z,76.71
2018-01-13T08:32:46.315Z,76.61
2018-01-13T08:33:26.862Z,76.23
2018-01-13T08:34:07.384Z,76.23
2018-01-13T08:34:47.912Z,76.33
2018-01-13T08:35:28.518Z,76.04
2018-01-13T08:36:08.994Z,76.08
2018-01-13T08:36:49.543Z,75.6
2018-01-13T08:37:30.025Z,75.76
2018-01-13T08:38:10.571Z,75.67
2018-01-13T08:38:51.127Z,75.6
2018-01-13T08:39:31.682Z,75.32
2018-01-13T08:40:12.274Z,75.42
2018-01-13T08:40:52.721Z,75.51
2018-01-13T08:41:33.435Z,75.32
2018-01-13T08:42:13.963Z,75.32
2018-01-13T08:42:54.517Z,75.51
2018-01-13T08:43:35.067Z,75.09
2018-01-13T08:44:15.630Z,75.38
2018-01-13T08:44:56.216Z,75.09
2018-01-13T08:45:36.736Z,75.42
2018-01-13T08:46:17.285Z,74.65